• Join FlightAware (Why Join?)
  • Login
  • US Flag 
10:35AM EDT


 

Airport Tracker/Info


-or-


 

Live Flight TrackerFlight Track Log ✈ SWA1688 ✈ 06-May-2013 ✈ KMCO - KALB

Flight Track Log - Related Links

Times and Time Zones

All times are in EDT time to prevent confusion due to time zone crossing. See the SWA1688 flight status page for this flight to view local times or setup timezone preferences in your user account.

Time Position Orientation Groundspeed Altitude Reporting Facility
EDT Latitude Longitude Course Direction KTS MPH feet Rate Location/Type
09:24PM 28.4000 -81.3000 147° Southeast 164 189 900  Level Orlando TRACON
09:25PM 28.3333 -81.2500 147° Southeast 227 261 5,500 3,300 Climbing Orlando TRACON
09:26PM 28.3667 -81.2000 53° Northeast 252 290 9,000 2,700 Climbing Orlando TRACON
09:28PM 28.4897 -81.2322 347° North 298 343 12,500 2,760 Climbing Jacksonville Center
09:29PM 28.5861 -81.2542 349° North 328 377 16,100 3,480 Climbing Jacksonville Center
09:30PM 28.6825 -81.2811 346° North 344 396 19,500 3,120 Climbing Jacksonville Center
09:31PM 28.7869 -81.3078 347° North 361 415 22,400 2,760 Climbing Jacksonville Center
09:33PM 29.0028 -81.3614 348° North 390 449 27,800 2,460 Climbing Jacksonville Center
09:34PM 29.1136 -81.3928 346° North 396 456 29,900 1,740 Climbing Jacksonville Center
09:35PM 29.2328 -81.4028 356° North 407 468 31,300 1,440 Climbing Jacksonville Center
09:36PM 29.3603 -81.4153 355° North 433 498 32,800 1,380 Climbing Jacksonville Center
09:37PM 29.4878 -81.4300 354° North 446 513 34,100 1,500 Climbing Jacksonville Center
09:38PM 29.6172 -81.4400 356° North 459 528 35,800 1,800 Climbing Jacksonville Center
09:39PM 29.7469 -81.4525 355° North 464 534 37,700 1,380 Climbing Jacksonville Center
09:41PM 30.0203 -81.4436 North 467 537 40,100 1,080 Climbing Jacksonville Center
09:42PM 30.1517 -81.4319 North 473 544 41,000 420 Climbing Jacksonville Center
09:43PM 30.2850 -81.4131 North 480 552 41,000  Level Jacksonville Center
09:44PM 30.4183 -81.3869 10° North 480 552 41,000  Level Jacksonville Center
09:45PM 30.5492 -81.3222 23° Northeast 492 566 41,000  Level Jacksonville Center
09:46PM 30.6756 -81.2575 24° Northeast 492 566 41,000  Level Jacksonville Center
09:47PM 30.8022 -81.1900 25° Northeast 492 566 41,000  Level Jacksonville Center
09:48PM 30.9286 -81.1222 25° Northeast 492 566 41,000  Level Jacksonville Center
09:49PM 31.0550 -81.0519 25° Northeast 497 572 41,000  Level Jacksonville Center
09:50PM 31.1792 -80.9864 24° Northeast 494 568 41,000  Level Jacksonville Center
09:52PM 31.4297 -80.8522 25° Northeast 489 563 41,000  Level Jacksonville Center
09:53PM 31.5539 -80.7861 24° Northeast 482 555 41,000  Level Jacksonville Center
09:54PM 31.6658 -80.7275 24° Northeast 482 555 41,000  Level Jacksonville Center
09:55PM 31.8022 -80.6533 25° Northeast 482 555 41,000  Level Jacksonville Center
09:57PM 32.0483 -80.5200 25° Northeast 482 555 41,000  Level Jacksonville Center
09:58PM 32.1556 -80.4583 26° Northeast 477 549 41,000  Level Jacksonville Center
09:59PM 32.2775 -80.3911 25° Northeast 482 555 41,000  Level Jacksonville Center
10:00PM 32.4014 -80.3239 25° Northeast 482 555 41,000  Level Jacksonville Center
10:01PM 32.5253 -80.2564 25° Northeast 482 555 41,000  Level Jacksonville Center
10:02PM 32.6492 -80.1886 25° Northeast 482 555 41,000  Level Jacksonville Center
10:03PM 32.7831 -80.1103 26° Northeast 482 555 41,000  Level Jacksonville Center
10:04PM 32.9047 -80.0397 26° Northeast 482 555 41,000  Level Jacksonville Center
10:05PM 33.0325 -79.9714 24° Northeast 482 555 41,000  Level Jacksonville Center
10:06PM 33.1581 -79.9003 25° Northeast 487 560 41,000  Level Jacksonville Center
10:07PM 33.2839 -79.8339 24° Northeast 487 560 41,000  Level Jacksonville Center
10:08PM 33.4053 -79.7625 26° Northeast 487 560 41,000  Level Jacksonville Center
10:09PM 33.5289 -79.6933 25° Northeast 487 560 41,000  Level Jacksonville Center
10:10PM 33.6542 -79.6217 25° Northeast 493 567 41,000  Level Jacksonville Center
10:11PM 33.7775 -79.5519 25° Northeast 493 567 41,000  Level Jacksonville Center
10:12PM 33.9011 -79.4847 24° Northeast 493 567 41,000  Level Jacksonville Center
10:13PM 33.9975 -79.4283 26° Northeast 487 560 41,000  Level Jacksonville Center
10:14PM 34.1247 -79.3556 25° Northeast 473 544 41,000  Level Jacksonville Center
10:16PM 34.4119 -79.1867 26° Northeast 487 560 41,000  Level Washington Center
10:17PM 34.5392 -79.1167 24° Northeast 487 560 41,000  Level Washington Center
10:18PM 34.6561 -79.0483 26° Northeast 482 555 41,000  Level Washington Center
10:19PM 34.7792 -78.9753 26° Northeast 477 549 41,000  Level Washington Center
10:20PM 34.9042 -78.9019 26° Northeast 477 549 41,000  Level Washington Center
10:21PM 35.0253 -78.8308 26° Northeast 477 549 41,000  Level Washington Center
10:22PM 35.1461 -78.7594 26° Northeast 477 549 41,000  Level Washington Center
10:23PM 35.2689 -78.6881 25° Northeast 477 549 41,000  Level Washington Center
10:24PM 35.4089 -78.6042 26° Northeast 490 564 41,000  Level Washington Center
10:25PM 35.5167 -78.5394 26° Northeast 490 564 41,000  Level Washington Center
10:26PM 35.6564 -78.4578 25° Northeast 490 564 41,000  Level Washington Center
10:27PM 35.7750 -78.3878 26° Northeast 490 564 41,000  Level Washington Center
10:28PM 35.8956 -78.3125 27° Northeast 490 564 41,000  Level Washington Center
10:29PM 36.0183 -78.2397 26° Northeast 485 558 41,000  Level Washington Center
10:30PM 36.1389 -78.1692 25° Northeast 480 552 41,000  Level Washington Center
10:31PM 36.2636 -78.0933 26° Northeast 480 552 41,000  Level Washington Center
10:32PM 36.3839 -78.0197 26° Northeast 480 552 41,000  Level Washington Center
10:33PM 36.5022 -77.9458 27° Northeast 475 547 41,000  Level Washington Center
10:34PM 36.6225 -77.8719 26° Northeast 475 547 41,000  Level Washington Center
10:35PM 36.7386 -77.7975 27° Northeast 470 541 41,000  Level Washington Center
10:37PM 36.8976 -77.6842 26° Northeast  Level FlightAware Approximate
10:38PM 37.0972 -77.5786 26° Northeast 469 540 41,000  Level Washington Center
10:39PM 37.2153 -77.5061 26° Northeast 469 540 41,000  Level Washington Center
10:41PM 37.4492 -77.3550 27° Northeast 469 540 41,000  Level Washington Center
10:42PM 37.5569 -77.2578 36° Northeast 469 540 41,000  Level Washington Center
10:43PM 37.6436 -77.1603 42° Northeast 469 540 41,000  Level Washington Center
10:44PM 37.7411 -77.0467 43° Northeast 464 534 41,000  Level Washington Center
10:45PM 37.8361 -76.9328 43° Northeast 464 534 41,000  Level Washington Center
10:46PM 37.9292 -76.8211 43° Northeast 464 534 41,000  Level Washington Center
10:47PM 38.0242 -76.7094 43° Northeast 464 534 41,000  Level Washington Center
10:48PM 38.1211 -76.6000 42° Northeast 459 528 41,000  Level Washington Center
10:49PM 38.2136 -76.4850 44° Northeast 454 522 41,000  Level Washington Center
10:50PM 38.3167 -76.3750 40° Northeast 455 524 41,000  Level Washington Center
10:51PM 38.4214 -76.2781 36° Northeast 450 518 41,000  Level Washington Center
10:52PM 38.5261 -76.1808 36° Northeast 450 518 41,000  Level Washington Center
10:53PM 38.6206 -76.0911 37° Northeast 464 534 41,000  Level Washington Center
10:54PM 38.7272 -75.9961 35° Northeast 464 534 41,000  Level Washington Center
10:55PM 38.8317 -75.9008 35° Northeast 464 534 41,000  Level Washington Center
10:56PM 38.9339 -75.7997 38° Northeast 464 534 41,000  Level Washington Center
10:57PM 39.0361 -75.7039 36° Northeast 458 527 41,000  Level Washington Center
10:58PM 39.1383 -75.6075 36° Northeast 453 521 41,000 -120 Level Washington Center
10:59PM 39.2406 -75.5086 37° Northeast 453 521 40,800 -600 Descending Washington Center
11:00PM 39.3447 -75.4172 34° Northeast 453 521 39,800 -960 Descending Washington Center
11:01PM 39.4444 -75.3256 35° Northeast 447 514 38,900 -960 Descending Washington Center
11:02PM 39.5422 -75.2364 35° Northeast 442 509 37,900 -960 Descending Washington Center
11:03PM 39.6522 -75.1361 35° Northeast 442 509 37,000 -960 Descending Washington Center
11:04PM 39.7397 -75.0581 34° Northeast 439 505 36,200 -1,020 Descending New York Center
11:05PM 39.8450 -74.9697 33° Northeast 439 505 35,200 -600 Descending New York Center
11:06PM 39.9208 -74.8850 41° Northeast 439 505 35,000 -120 Descending New York Center
11:07PM 40.0358 -74.7561 41° Northeast 447 514 35,000 -180 Level New York Center
11:08PM 40.1289 -74.6503 41° Northeast 447 514 34,700 -660 Descending New York Center
11:09PM 40.2356 -74.5775 28° Northeast 427 491 33,700 -960 Descending New York Center
11:10PM 40.3578 -74.5350 15° North 437 503 32,900 -960 Descending New York Center
11:12PM 40.5731 -74.4756 12° North 438 504 31,100 -1,080 Descending Boston Center
11:13PM 40.6906 -74.4381 14° North 431 496 30,000 -1,080 Descending Boston Center
11:14PM 40.8078 -74.4033 13° North 431 496 29,000 -960 Descending Boston Center
11:15PM 40.9167 -74.3792 10° North 438 504 28,100 -900 Descending Boston Center
11:16PM 41.0275 -74.3442 13° North 432 497 27,100 -900 Descending Boston Center
11:17PM 41.1617 -74.3039 13° North 415 478 26,000 -540 Descending Boston Center
11:18PM 41.3019 -74.2556 15° North 410 472 26,000  Level Boston Center
11:19PM 41.4108 -74.2225 13° North 400 460 26,000 -60 Level Boston Center
11:20PM 41.4989 -74.1944 13° North 400 460 25,900 -1,320 Descending Boston Center
11:21PM 41.6225 -74.1592 12° North 400 460 23,400 -2,340 Descending Boston Center
11:22PM 41.7250 -74.1258 14° North 386 444 21,200 -2,220 Descending Boston Center
11:23PM 41.8214 -74.0975 12° North 365 420 19,000 -2,220 Descending Boston Center
11:24PM 41.9281 -74.0642 13° North 351 404 16,800 -2,160 Descending Boston Center
11:25PM 42.0139 -74.0356 14° North 356 410 14,700 -2,280 Descending Boston Center
11:26PM 42.1186 -74.0047 12° North 351 404 12,300 -1,740 Descending Boston Center
11:27PM 42.2253 -73.9764 11° North 333 383 11,000 -1,140 Descending Boston Center
11:28PM 42.2942 -73.9669 North 316 364 10,100 -1,320 Descending Boston Center
11:29PM 42.3903 -73.9553 North 292 336 8,400 -1,380 Descending Boston Center
11:30PM 42.4697 -73.9458 North 287 330 7,200 -1,380 Descending Boston Center
11:31PM 42.5428 -73.9364 North 267 307 5,700 -1,440 Descending Boston Center
11:32PM 42.6178 -73.9242 North 268 308 4,400 -1,260 Descending Boston Center
11:33PM 42.6869 -73.9089 North 248 285 3,200 -900 Descending Boston Center
11:34PM 42.7536 -73.8964 North 235 270 2,600 -540 Descending Boston Center
11:35PM 42.8019 -73.8692 22° Northeast 167 192 2,200 -720 Descending Boston Center
11:36PM 42.8047 -73.8183 86° East 114 131 1,200 -840 Descending Boston Center
11:37PM 42.7756 -73.8064 163° South 105 121 600 -600 Descending Boston Center